Time;durP1;ratioP1;P1;durP2;ratioP2;P2;SDS_P1;SDS_P2;PMS_P1;PMS_P2;Temp;Humidity;BMP_temperature;BMP_pressure;BME280_temperature;BME280_humidity;BME280_pressure;Samples;Min_cycle;Max_cycle;Signal;HPM_P1;HPM_P2
2022/05/01 00:01:00;;;;;;;21.57;12.97;;;11.70;99.90;;;;;;5074618;28;20085;-65
2022/05/01 00:03:31;;;;;;;18.98;13.73;;;11.70;99.90;;;;;;5074783;28;20420;-65
2022/05/01 00:06:03;;;;;;;19.70;13.35;;;11.70;99.90;;;;;;5075260;28;20039;-65
2022/05/01 00:08:28;;;;;;;18.80;13.57;;;11.70;99.90;;;;;;5079167;28;20185;-65
2022/05/01 00:10:55;;;;;;;17.83;12.43;;;11.80;99.90;;;;;;5079574;28;20024;-65
2022/05/01 00:13:22;;;;;;;22.35;13.07;;;11.70;99.90;;;;;;5105567;22;20048;-64
2022/05/01 00:15:48;;;;;;;18.38;13.23;;;11.70;99.90;;;;;;5094574;28;20095;-64
2022/05/01 00:18:14;;;;;;;20.35;13.80;;;11.60;99.90;;;;;;5076833;28;20086;-64
2022/05/01 00:20:40;;;;;;;20.63;14.00;;;11.50;99.90;;;;;;5095363;28;20437;-64
2022/05/01 00:23:05;;;;;;;20.85;13.43;;;11.40;99.90;;;;;;5075932;28;20428;-63
2022/05/01 00:25:32;;;;;;;21.93;13.90;;;11.60;99.90;;;;;;5076105;28;20542;-63
2022/05/01 00:27:58;;;;;;;;;;;11.60;99.90;;;;;;5094617;28;20078;-63
2022/05/01 00:30:26;;;;;;;24.13;14.10;;;11.60;99.90;;;;;;5094022;28;19904;-64
2022/05/01 00:38:26;;;;;;;20.23;13.63;;;11.50;99.90;;;;;;5094553;28;20030;-64
2022/05/01 00:40:52;;;;;;;20.70;13.82;;;11.50;99.90;;;;;;5093772;28;20028;-63
2022/05/01 00:43:17;;;;;;;20.43;13.67;;;11.50;99.90;;;;;;5075560;28;20024;-63
2022/05/01 00:45:43;;;;;;;21.70;13.40;;;11.40;99.90;;;;;;5093672;28;20538;-63
2022/05/01 00:48:09;;;;;;;22.40;13.83;;;11.40;99.90;;;;;;5093899;28;20103;-63
2022/05/01 00:50:35;;;;;;;22.42;14.05;;;11.30;99.90;;;;;;5093436;28;20135;-63
2022/05/01 00:53:04;;;;;;;18.77;13.82;;;11.30;99.90;;;;;;5093680;28;20032;-63
2022/05/01 00:55:33;;;;;;;23.13;13.43;;;11.30;99.90;;;;;;5093441;28;20119;-64
2022/05/01 00:58:01;;;;;;;22.98;13.77;;;11.40;99.90;;;;;;5093343;28;20057;-64
2022/05/01 01:00:27;;;;;;;20.25;13.98;;;11.40;99.90;;;;;;5093300;28;20024;-64
2022/05/01 01:02:53;;;;;;;22.85;14.15;;;11.40;99.90;;;;;;5093342;28;20035;-64
2022/05/01 01:05:18;;;;;;;20.25;14.23;;;11.40;99.90;;;;;;5093151;28;20032;-64
2022/05/01 01:07:44;;;;;;;23.43;14.37;;;11.40;99.90;;;;;;5093356;28;20126;-65
2022/05/01 01:10:10;;;;;;;20.63;13.02;;;11.50;99.90;;;;;;5093120;28;20024;-64
2022/05/01 01:12:54;;;;;;;20.67;13.02;;;11.40;99.90;;;;;;5093024;28;20028;-64
2022/05/01 01:15:25;;;;;;;20.25;13.15;;;11.50;99.90;;;;;;5074964;28;20036;-64
2022/05/01 01:17:54;;;;;;;22.48;14.10;;;11.40;99.90;;;;;;5092884;28;20077;-64
2022/05/01 01:20:22;;;;;;;20.48;14.10;;;11.40;99.90;;;;;;5093223;28;20031;-64
2022/05/01 01:22:53;;;;;;;19.25;13.27;;;11.40;99.90;;;;;;5093177;28;20031;-64
2022/05/01 01:25:22;;;;;;;24.25;14.65;;;11.40;99.90;;;;;;5093157;28;20026;-64
2022/05/01 01:27:51;;;;;;;19.75;13.65;;;11.30;99.90;;;;;;5093102;28;20016;-64
2022/05/01 01:33:03;;;;;;;20.02;14.50;;;11.30;99.90;;;;;;5093228;28;20035;-64
2022/05/01 01:35:29;;;;;;;20.80;13.48;;;11.20;99.90;;;;;;5093486;28;20028;-64
2022/05/01 01:37:56;;;;;;;23.13;13.95;;;11.20;99.90;;;;;;5074804;28;20115;-64
2022/05/01 01:40:37;;;;;;;22.80;13.98;;;11.20;99.90;;;;;;5074959;28;20472;-63
2022/05/01 01:43:05;;;;;;;18.05;14.10;;;11.30;99.90;;;;;;5093346;28;20046;-63
2022/05/01 01:45:31;;;;;;;22.77;12.77;;;11.30;99.90;;;;;;5074794;28;20093;-62
2022/05/01 01:48:15;;;;;;;21.85;14.50;;;11.30;99.90;;;;;;5093425;28;20461;-64
2022/05/01 01:50:42;;;;;;;20.20;13.85;;;11.30;99.90;;;;;;5092854;28;20016;-63
2022/05/01 01:53:09;;;;;;;22.35;14.65;;;11.30;99.90;;;;;;5092737;28;20031;-63
2022/05/01 01:55:38;;;;;;;20.13;13.73;;;11.20;99.90;;;;;;5092540;28;20388;-63
2022/05/01 01:58:05;;;;;;;23.38;14.77;;;11.20;99.90;;;;;;5092641;28;20024;-63
2022/05/01 02:00:32;;;;;;;21.75;15.18;;;11.10;99.90;;;;;;5074641;28;20059;-63
2022/05/01 02:03:03;;;;;;;;;;;11.10;99.90;;;;;;5092740;28;20024;-63
2022/05/01 02:05:31;;;;;;;22.83;13.75;;;11.10;99.90;;;;;;5092454;28;20094;-62
2022/05/01 02:07:57;;;;;;;22.60;14.20;;;11.00;99.90;;;;;;5092416;28;20365;-63
2022/05/01 02:10:23;;;;;;;;;;;11.00;99.90;;;;;;5093016;28;20345;-63
2022/05/01 02:12:49;;;;;;;21.35;13.40;;;11.00;99.90;;;;;;5092291;28;19942;-63
2022/05/01 02:15:15;;;;;;;23.95;14.20;;;11.00;99.90;;;;;;5092782;28;20153;-63
2022/05/01 02:17:41;;;;;;;23.30;14.90;;;10.90;99.90;;;;;;5092374;28;20061;-63
2022/05/01 02:20:08;;;;;;;21.55;14.25;;;10.90;99.90;;;;;;5092697;28;20028;-64
2022/05/01 02:22:35;;;;;;;21.08;14.45;;;10.90;99.90;;;;;;5092858;28;20118;-64
2022/05/01 02:25:01;;;;;;;22.98;14.55;;;10.90;99.90;;;;;;5074518;28;20050;-64
2022/05/01 02:27:27;;;;;;;;;;;10.90;99.90;;;;;;5092821;28;20028;-64
2022/05/01 02:29:52;;;;;;;23.02;14.70;;;10.90;99.90;;;;;;5075326;28;19910;-63
2022/05/01 02:32:18;;;;;;;23.63;15.33;;;10.90;99.90;;;;;;5077969;28;20506;-64
2022/05/01 02:34:45;;;;;;;23.67;15.00;;;11.00;99.90;;;;;;5096373;28;20490;-64
2022/05/01 02:37:10;;;;;;;23.20;15.32;;;11.20;99.90;;;;;;5095886;28;20052;-64
2022/05/01 02:39:36;;;;;;;25.93;15.63;;;11.30;99.90;;;;;;5095851;28;20040;-65
2022/05/01 02:42:02;;;;;;;25.07;14.37;;;11.20;99.90;;;;;;5095741;28;20035;-64
2022/05/01 02:44:28;;;;;;;23.23;14.25;;;11.20;99.90;;;;;;5077216;28;20035;-63
2022/05/01 02:46:54;;;;;;;;;;;11.30;99.90;;;;;;5096425;28;20457;-63
2022/05/01 02:49:20;;;;;;;20.50;14.13;;;11.20;99.90;;;;;;5078142;28;19915;-63
2022/05/01 02:51:45;;;;;;;23.33;14.10;;;11.10;99.90;;;;;;5095751;28;20028;-63
2022/05/01 02:54:11;;;;;;;20.37;14.17;;;11.00;99.90;;;;;;5095837;28;20020;-63
2022/05/01 02:56:37;;;;;;;21.63;14.00;;;11.10;99.90;;;;;;5095554;28;20477;-63
2022/05/01 02:59:02;;;;;;;23.00;14.43;;;11.00;99.90;;;;;;5095654;28;20395;-64
2022/05/01 03:01:29;;;;;;;22.45;14.50;;;11.00;99.90;;;;;;5095396;28;20086;-62
2022/05/01 03:03:55;;;;;;;24.63;14.45;;;11.10;99.90;;;;;;5095753;28;20020;-64
2022/05/01 03:06:21;;;;;;;21.80;14.52;;;11.10;99.90;;;;;;5095759;28;20503;-64
2022/05/01 03:08:47;;;;;;;21.90;13.80;;;11.00;99.90;;;;;;5095730;28;20093;-63
2022/05/01 03:11:12;;;;;;;22.05;14.48;;;11.00;99.90;;;;;;5095379;28;20048;-63
2022/05/01 03:13:38;;;;;;;20.97;14.87;;;10.90;99.90;;;;;;5076609;28;20523;-63
2022/05/01 03:16:04;;;;;;;28.90;15.47;;;10.90;99.90;;;;;;5077014;28;20052;-63
2022/05/01 03:23:58;;;;;;;23.23;14.82;;;10.80;99.90;;;;;;5095058;28;20047;-64
2022/05/01 03:26:25;;;;;;;20.43;14.80;;;10.80;99.90;;;;;;5094781;28;20421;-63
2022/05/01 03:28:51;;;;;;;20.13;15.10;;;10.90;99.90;;;;;;5095195;28;20023;-64
2022/05/01 03:31:17;;;;;;;25.27;15.85;;;11.00;99.90;;;;;;5095088;28;20020;-63
2022/05/01 03:33:44;;;;;;;22.55;14.35;;;11.00;99.90;;;;;;5094839;28;20085;-63
2022/05/01 03:36:11;;;;;;;19.25;13.48;;;11.00;99.90;;;;;;5094795;28;20028;-64
2022/05/01 03:38:37;;;;;;;20.52;13.75;;;11.20;99.90;;;;;;5095091;28;20480;-64
2022/05/01 03:41:05;;;;;;;20.70;13.77;;;11.10;99.90;;;;;;5094176;28;20036;-64
2022/05/01 03:43:32;;;;;;;17.42;12.43;;;11.10;99.90;;;;;;5094306;28;20024;-64
2022/05/01 03:45:58;;;;;;;19.05;12.95;;;11.00;99.90;;;;;;5094585;28;20506;-63
2022/05/01 03:48:24;;;;;;;21.00;12.57;;;11.00;99.90;;;;;;5094743;28;20016;-64
2022/05/01 03:50:51;;;;;;;16.73;12.13;;;11.00;99.90;;;;;;5095105;28;20108;-63
2022/05/01 03:53:17;;;;;;;14.95;11.52;;;10.90;99.90;;;;;;5094481;28;20260;-64
2022/05/01 03:55:42;;;;;;;18.53;12.17;;;10.90;99.90;;;;;;5076182;28;20115;-64
2022/05/01 03:58:08;;;;;;;16.27;11.67;;;10.90;99.90;;;;;;5094334;28;20035;-63
2022/05/01 04:00:35;;;;;;;21.58;12.63;;;10.90;99.90;;;;;;5076373;28;20053;-62
2022/05/01 04:03:00;;;;;;;;;;;11.20;99.90;;;;;;5076434;28;20036;-63
2022/05/01 04:05:26;;;;;;;18.58;11.95;;;11.10;99.90;;;;;;5094221;28;20326;-63
2022/05/01 04:07:52;;;;;;;18.80;12.43;;;11.00;99.90;;;;;;5094333;28;20464;-63
2022/05/01 04:10:17;;;;;;;21.42;13.13;;;10.90;99.90;;;;;;5094756;28;20040;-63
2022/05/01 04:12:44;;;;;;;22.80;13.43;;;10.70;99.90;;;;;;5094155;28;20012;-63
2022/05/01 04:15:11;;;;;;;19.02;12.65;;;10.60;99.90;;;;;;5094864;28;20043;-64
2022/05/01 04:17:41;;;;;;;26.15;14.80;;;10.60;99.90;;;;;;5094166;28;20032;-64
2022/05/01 04:20:09;;;;;;;20.10;12.88;;;10.50;99.90;;;;;;5075828;28;20070;-64
2022/05/01 04:22:43;;;;;;;18.23;13.00;;;10.50;99.90;;;;;;5075599;28;20115;-64
2022/05/01 04:25:20;;;;;;;22.83;14.07;;;10.40;99.90;;;;;;5093793;28;20388;-63
2022/05/01 04:27:48;;;;;;;18.73;12.38;;;10.40;99.90;;;;;;5094160;28;20384;-63
2022/05/01 04:30:15;;;;;;;19.30;12.48;;;10.40;99.90;;;;;;5094054;28;20029;-63
2022/05/01 04:32:51;;;;;;;18.55;12.80;;;10.40;99.90;;;;;;5093883;28;20095;-64
2022/05/01 04:35:32;;;;;;;18.88;13.02;;;10.50;99.90;;;;;;5075612;28;20078;-64
2022/05/01 04:38:05;;;;;;;19.17;13.05;;;10.80;99.90;;;;;;5094163;28;20115;-64
2022/05/01 04:40:34;;;;;;;20.20;13.93;;;10.80;99.90;;;;;;5094072;28;20099;-63
2022/05/01 04:43:17;;;;;;;22.88;13.45;;;10.90;99.90;;;;;;5095857;28;20024;-63
2022/05/01 04:45:43;;;;;;;17.08;12.73;;;11.00;99.90;;;;;;5097270;28;20024;-64
2022/05/01 04:48:11;;;;;;;18.13;12.68;;;11.00;99.90;;;;;;5094907;28;20492;-65
2022/05/01 04:50:37;;;;;;;18.90;12.85;;;10.90;99.90;;;;;;5093796;28;20046;-65
2022/05/01 04:53:06;;;;;;;21.40;12.43;;;11.10;99.90;;;;;;5075201;28;20449;-64
2022/05/01 04:55:33;;;;;;;19.38;12.38;;;11.00;99.90;;;;;;5075243;28;20459;-65
2022/05/01 04:57:59;;;;;;;21.17;13.13;;;11.20;99.90;;;;;;5093776;28;20039;-65
2022/05/01 05:00:26;;;;;;;21.23;13.10;;;11.30;99.90;;;;;;5093742;28;20145;-65
2022/05/01 05:02:53;;;;;;;21.90;12.85;;;11.40;99.90;;;;;;5093541;28;20048;-68
2022/05/01 05:05:20;;;;;;;24.08;13.68;;;11.30;99.90;;;;;;5093030;28;20472;-64
2022/05/01 05:07:46;;;;;;;21.00;13.60;;;11.30;99.90;;;;;;5093319;28;20349;-60
2022/05/01 05:10:12;;;;;;;;;;;11.20;99.90;;;;;;5094220;28;20024;-64
2022/05/01 05:12:43;;;;;;;19.52;13.18;;;11.20;99.90;;;;;;5094189;28;19904;-64
2022/05/01 05:15:16;;;;;;;19.23;12.52;;;11.20;99.90;;;;;;5075267;28;20032;-64
2022/05/01 05:17:43;;;;;;;18.70;13.55;;;11.10;99.90;;;;;;5093858;28;20145;-65
2022/05/01 05:20:12;;;;;;;22.77;14.23;;;11.20;99.90;;;;;;5093928;28;20035;-65
2022/05/01 05:22:39;;;;;;;22.42;14.38;;;11.20;99.90;;;;;;5092843;28;20170;-65
2022/05/01 05:25:08;;;;;;;19.55;13.43;;;11.20;99.90;;;;;;5093032;28;20081;-65
2022/05/01 05:27:34;;;;;;;23.90;15.05;;;11.40;99.90;;;;;;5093982;28;20020;-65
2022/05/01 05:29:59;;;;;;;19.30;14.00;;;11.30;99.90;;;;;;5095706;28;20131;-65
2022/05/01 05:32:26;;;;;;;24.57;14.73;;;11.30;99.90;;;;;;5095387;28;20050;-65
2022/05/01 05:34:52;;;;;;;22.25;14.63;;;11.20;99.90;;;;;;5076004;28;20028;-66
2022/05/01 05:37:19;;;;;;;19.23;14.52;;;11.30;99.90;;;;;;5076263;28;20039;-64
2022/05/01 05:39:45;;;;;;;20.48;14.77;;;11.20;99.90;;;;;;5075412;28;20516;-64
2022/05/01 05:42:11;;;;;;;18.67;13.73;;;11.10;99.90;;;;;;5093569;28;20080;-66
2022/05/01 05:44:38;;;;;;;21.30;15.23;;;11.20;99.90;;;;;;5074781;28;20032;-65
2022/05/01 05:47:04;;;;;;;20.10;13.93;;;11.20;99.90;;;;;;5093050;28;20334;-65
2022/05/01 05:49:31;;;;;;;20.13;13.52;;;11.50;99.90;;;;;;5092869;28;20028;-65
2022/05/01 05:51:57;;;;;;;18.27;13.40;;;11.60;99.90;;;;;;5074881;28;20028;-66
2022/05/01 05:54:23;;;;;;;21.52;14.93;;;11.50;99.90;;;;;;5092945;28;20031;-66
2022/05/01 05:56:49;;;;;;;21.50;14.25;;;11.70;99.90;;;;;;5092973;28;20388;-66
2022/05/01 05:59:15;;;;;;;19.77;13.40;;;11.70;99.90;;;;;;5074961;28;20032;-66
2022/05/01 06:01:41;;;;;;;23.58;14.10;;;11.60;99.90;;;;;;5093088;28;20350;-66
2022/05/01 06:04:07;;;;;;;19.40;13.20;;;11.60;99.90;;;;;;5092751;28;20472;-66
2022/05/01 06:06:34;;;;;;;22.37;14.13;;;11.60;99.90;;;;;;5097028;28;20066;-66
2022/05/01 06:09:00;;;;;;;20.55;13.63;;;11.70;99.90;;;;;;5097077;28;20023;-66
2022/05/01 06:11:25;;;;;;;18.55;13.13;;;11.70;99.90;;;;;;5097088;28;20092;-66
2022/05/01 06:13:52;;;;;;;22.23;13.67;;;11.80;99.90;;;;;;5097183;28;20206;-66
2022/05/01 06:16:18;;;;;;;17.50;12.73;;;11.80;99.90;;;;;;5096939;28;20016;-66
2022/05/01 06:18:43;;;;;;;20.23;13.33;;;12.10;99.90;;;;;;5096876;28;20161;-66
2022/05/01 06:21:09;;;;;;;17.53;13.23;;;12.10;99.90;;;;;;5096874;28;20052;-66
2022/05/01 06:23:37;;;;;;;18.53;12.73;;;12.00;99.90;;;;;;5096380;28;20038;-66
2022/05/01 06:26:05;;;;;;;19.33;13.13;;;12.10;99.90;;;;;;5096577;28;20060;-66
2022/05/01 06:28:31;;;;;;;19.15;13.77;;;11.90;99.90;;;;;;5096595;28;20092;-66
2022/05/01 06:30:58;;;;;;;18.33;13.65;;;11.90;99.90;;;;;;5096861;28;20107;-64
2022/05/01 06:33:24;;;;;;;17.25;12.70;;;11.90;99.90;;;;;;5096907;28;20089;-67
2022/05/01 06:35:52;;;;;;;22.70;15.77;;;11.90;99.90;;;;;;5096437;28;20476;-65
2022/05/01 06:38:18;;;;;;;30.30;14.73;;;11.80;99.90;;;;;;5096510;28;20028;-64
2022/05/01 06:40:44;;;;;;;20.15;14.32;;;11.90;99.90;;;;;;5096690;28;20035;-62
2022/05/01 06:43:14;;;;;;;16.23;12.80;;;12.00;99.90;;;;;;5096372;28;20403;-65
2022/05/01 06:45:43;;;;;;;22.88;14.23;;;12.00;99.90;;;;;;5096791;28;20070;-65
2022/05/01 06:48:10;;;;;;;17.55;13.43;;;12.10;99.90;;;;;;5096587;28;20020;-65
2022/05/01 06:50:36;;;;;;;17.40;13.95;;;12.00;99.90;;;;;;5096406;28;20455;-66
2022/05/01 06:53:02;;;;;;;17.33;12.02;;;12.00;99.90;;;;;;5078048;28;20031;-67
2022/05/01 06:55:28;;;;;;;18.55;12.07;;;12.10;99.90;;;;;;5078277;28;20028;-64
2022/05/01 06:57:54;;;;;;;21.38;12.80;;;12.20;99.90;;;;;;5096671;28;20024;-63
2022/05/01 07:00:20;;;;;;;17.38;11.13;;;12.30;99.90;;;;;;5077860;28;20028;-60
2022/05/01 07:02:50;;;;;;;18.30;12.65;;;12.50;99.90;;;;;;5095976;28;20024;-66
2022/05/01 07:05:17;;;;;;;20.05;12.73;;;12.40;99.90;;;;;;5095933;28;20032;-65
2022/05/01 07:07:42;;;;;;;17.70;11.55;;;12.30;99.90;;;;;;5096290;28;20020;-63
2022/05/01 07:10:09;;;;;;;18.33;13.13;;;12.80;99.90;;;;;;5096011;28;20085;-65
2022/05/01 07:12:35;;;;;;;18.52;12.43;;;12.70;99.90;;;;;;5095610;28;20415;-64
2022/05/01 07:15:01;;;;;;;17.50;13.93;;;12.90;99.90;;;;;;5095728;28;20040;-66
2022/05/01 07:17:27;;;;;;;21.70;13.68;;;13.00;99.90;;;;;;5094886;28;20429;-64
2022/05/01 07:19:53;;;;;;;20.77;14.35;;;13.20;99.90;;;;;;5095755;28;20107;-65
2022/05/01 07:22:18;;;;;;;17.30;13.13;;;13.30;99.90;;;;;;5077800;28;20434;-65
2022/05/01 07:24:44;;;;;;;17.77;13.02;;;13.20;99.90;;;;;;5095530;28;20031;-63
2022/05/01 07:27:10;;;;;;;18.73;13.70;;;13.10;99.90;;;;;;5095607;28;20486;-62
2022/05/01 07:29:36;;;;;;;20.80;13.52;;;13.20;99.90;;;;;;5094933;28;20361;-62
2022/05/01 07:32:02;;;;;;;20.40;15.27;;;13.20;99.90;;;;;;5095128;28;20031;-61
2022/05/01 07:34:28;;;;;;;18.85;13.15;;;13.20;99.90;;;;;;5096255;28;20032;-63
2022/05/01 07:36:54;;;;;;;19.53;15.13;;;13.20;99.90;;;;;;5097378;28;20557;-63
2022/05/01 07:39:19;;;;;;;22.43;12.67;;;13.20;99.90;;;;;;5076640;28;20024;-63
2022/05/01 07:41:45;;;;;;;19.07;13.10;;;13.20;99.90;;;;;;5095227;28;20025;-63
2022/05/01 07:44:13;;;;;;;20.57;14.03;;;13.40;99.90;;;;;;5094957;28;20117;-62
2022/05/01 07:46:39;;;;;;;19.17;13.98;;;13.60;99.90;;;;;;5095240;28;20480;-65
2022/05/01 07:49:06;;;;;;;19.13;13.00;;;13.50;99.90;;;;;;5094822;28;20396;-64
2022/05/01 07:51:32;;;;;;;19.77;14.63;;;13.60;99.90;;;;;;5095239;28;20028;-65
2022/05/01 07:53:58;;;;;;;17.67;13.85;;;13.90;99.90;;;;;;5094849;28;20030;-65
2022/05/01 07:56:28;;;;;;;18.52;13.13;;;14.10;99.90;;;;;;5094667;28;20396;-64
2022/05/01 07:58:54;;;;;;;16.92;13.73;;;14.30;99.90;;;;;;5094871;28;20095;-67
2022/05/01 08:01:20;;;;;;;18.23;14.40;;;14.50;99.90;;;;;;5094796;28;20587;-67
2022/05/01 08:06:30;;;;;;;22.38;13.93;;;14.40;99.90;;;;;;5096532;28;20095;-67
2022/05/01 08:08:59;;;;;;;17.40;12.25;;;14.60;99.90;;;;;;5097023;28;20028;-68
2022/05/01 08:11:25;;;;;;;21.02;14.52;;;14.90;99.90;;;;;;5095410;28;20103;-68
2022/05/01 08:13:50;;;;;;;19.05;13.80;;;15.30;99.90;;;;;;5094724;28;20519;-67
2022/05/01 08:16:17;;;;;;;20.48;14.60;;;15.60;99.90;;;;;;5094311;28;20032;-67
2022/05/01 08:21:31;;;;;;;19.15;14.57;;;14.90;99.90;;;;;;5094209;28;20126;-68
2022/05/01 08:23:57;;;;;;;18.52;14.93;;;14.80;99.90;;;;;;5093800;28;20024;-68
2022/05/01 08:26:23;;;;;;;23.45;15.45;;;14.80;99.90;;;;;;5094190;28;20035;-68
2022/05/01 08:28:53;;;;;;;19.88;14.77;;;14.80;99.90;;;;;;5094064;28;20063;-69
2022/05/01 08:31:18;;;;;;;18.45;14.63;;;14.90;99.90;;;;;;5094231;28;20050;-67
2022/05/01 08:33:44;;;;;;;20.88;15.38;;;15.00;99.90;;;;;;5094539;28;20396;-68
2022/05/01 08:36:10;;;;;;;20.10;15.73;;;15.20;99.90;;;;;;5094580;28;20061;-69
2022/05/01 08:38:37;;;;;;;18.27;15.35;;;14.80;99.90;;;;;;5094739;28;20464;-68
2022/05/01 08:41:04;;;;;;;19.38;15.95;;;14.40;99.90;;;;;;5093935;28;20232;-67
2022/05/01 08:43:31;;;;;;;21.05;15.75;;;14.40;99.90;;;;;;5093652;28;20179;-68
2022/05/01 08:46:24;;;;;;;19.52;15.43;;;14.30;99.90;;;;;;5093839;28;20448;-68
2022/05/01 08:49:07;;;;;;;22.08;16.48;;;14.40;99.90;;;;;;5093813;28;20472;-68
2022/05/01 08:51:41;;;;;;;21.95;15.88;;;14.50;99.90;;;;;;5075049;28;20028;-67
2022/05/01 08:54:11;;;;;;;23.02;16.52;;;14.30;99.90;;;;;;5093510;28;20017;-67
2022/05/01 08:56:41;;;;;;;23.45;16.58;;;14.40;99.90;;;;;;5093990;28;20024;-68
2022/05/01 08:59:11;;;;;;;20.38;15.27;;;14.60;99.90;;;;;;5094259;28;20051;-67
2022/05/01 09:01:39;;;;;;;21.35;15.00;;;15.80;99.90;;;;;;5094379;28;20380;-68
2022/05/01 09:04:06;;;;;;;20.80;16.85;;;17.40;99.90;;;;;;5094404;28;20024;-69
2022/05/01 09:06:33;;;;;;;20.17;15.80;;;17.90;98.50;;;;;;5094114;28;20365;-68
2022/05/01 09:08:59;;;;;;;21.75;15.55;;;17.80;98.40;;;;;;5094021;28;20083;-67
2022/05/01 09:14:09;;;;;;;17.10;13.85;;;17.20;99.70;;;;;;5093697;28;20113;-67
2022/05/01 09:16:39;;;;;;;19.83;14.77;;;17.00;99.90;;;;;;5093903;28;20472;-68
2022/05/01 09:19:05;;;;;;;17.05;13.80;;;16.90;99.90;;;;;;5093695;28;20477;-68
2022/05/01 09:21:49;;;;;;;17.33;13.70;;;16.60;99.90;;;;;;5093912;28;20506;-67
2022/05/01 09:24:26;;;;;;;16.63;13.90;;;16.40;99.90;;;;;;5093550;28;20468;-67
2022/05/01 09:26:51;;;;;;;21.05;13.52;;;16.00;99.90;;;;;;5093651;28;20036;-67
2022/05/01 09:29:22;;;;;;;18.40;13.02;;;15.60;99.90;;;;;;5093574;28;20334;-68
2022/05/01 09:31:48;;;;;;;20.33;14.98;;;15.70;99.90;;;;;;5093556;28;20028;-67
2022/05/01 09:34:17;;;;;;;;;;;15.40;99.90;;;;;;5093462;28;20072;-67
2022/05/01 09:36:43;;;;;;;18.52;13.65;;;15.40;99.90;;;;;;5093496;28;19944;-67
2022/05/01 09:39:08;;;;;;;19.42;14.48;;;15.50;99.90;;;;;;5092750;28;20024;-67
2022/05/01 09:41:34;;;;;;;19.30;14.17;;;15.80;99.90;;;;;;5075060;28;20113;-67
2022/05/01 09:44:12;;;;;;;22.97;14.27;;;15.90;99.90;;;;;;5092917;28;20270;-67
2022/05/01 09:46:38;;;;;;;17.63;12.98;;;16.00;99.90;;;;;;5093267;28;20262;-66
2022/05/01 09:49:10;;;;;;;17.38;13.80;;;16.10;99.90;;;;;;5074745;28;20032;-67
2022/05/01 09:51:54;;;;;;;15.50;13.45;;;15.90;99.90;;;;;;5093070;28;20078;-68
2022/05/01 09:54:25;;;;;;;19.08;13.40;;;16.00;99.90;;;;;;5074426;28;20023;-67
2022/05/01 09:56:54;;;;;;;17.83;12.18;;;16.30;99.90;;;;;;5092461;28;20024;-67
2022/05/01 09:59:22;;;;;;;15.02;12.35;;;17.60;99.90;;;;;;5092861;28;20404;-68
2022/05/01 10:02:05;;;;;;;14.98;11.68;;;19.30;96.80;;;;;;5092670;28;20028;-68
2022/05/01 10:04:33;;;;;;;14.82;11.90;;;20.40;94.50;;;;;;5074194;28;20032;-68
2022/05/01 10:07:00;;;;;;;13.38;11.52;;;21.20;91.70;;;;;;5092618;28;20027;-68
2022/05/01 10:09:28;;;;;;;14.82;11.13;;;21.40;91.20;;;;;;5092587;28;20031;-68
2022/05/01 10:11:56;;;;;;;12.75;11.30;;;22.10;90.40;;;;;;5093489;28;20457;-68
2022/05/01 10:14:23;;;;;;;18.58;11.40;;;21.70;87.60;;;;;;5092513;28;20027;-67
2022/05/01 10:16:50;;;;;;;15.85;11.98;;;20.50;89.70;;;;;;5092461;28;20024;-65
2022/05/01 10:19:17;;;;;;;14.88;11.32;;;19.90;91.30;;;;;;5092814;28;20020;-69
2022/05/01 10:21:47;;;;;;;17.00;11.75;;;19.40;92.00;;;;;;5092756;28;20560;-68
2022/05/01 10:24:16;;;;;;;13.68;11.88;;;18.90;92.70;;;;;;5074776;28;20024;-67
2022/05/01 10:26:58;;;;;;;16.75;12.30;;;18.60;93.50;;;;;;5093645;28;20084;-68
2022/05/01 10:32:48;;;;;;;14.73;10.45;;;18.20;94.60;;;;;;5092682;28;20396;-68
2022/05/01 10:35:20;;;;;;;17.45;11.40;;;17.90;94.10;;;;;;5092799;28;20123;-66
2022/05/01 10:38:07;;;;;;;17.98;11.93;;;17.70;94.70;;;;;;5074448;28;20031;-67
2022/05/01 10:40:38;;;;;;;15.40;12.20;;;17.50;95.60;;;;;;5093115;28;20027;-67
2022/05/01 10:43:33;;;;;;;15.98;11.88;;;17.40;95.90;;;;;;5074262;28;20506;-67
2022/05/01 10:46:00;;;;;;;13.57;10.35;;;17.40;95.80;;;;;;5092362;28;20457;-68
2022/05/01 10:48:34;;;;;;;15.45;10.93;;;17.20;95.70;;;;;;5092370;28;20487;-66
2022/05/01 10:51:27;;;;;;;12.43;10.13;;;17.20;95.30;;;;;;5093322;28;20024;-66
2022/05/01 10:54:14;;;;;;;12.93;9.90;;;16.90;95.40;;;;;;5095710;28;20031;-66
2022/05/01 10:56:45;;;;;;;15.10;10.60;;;16.90;95.90;;;;;;5077420;28;20016;-66
2022/05/01 10:59:29;;;;;;;10.68;9.50;;;16.90;95.90;;;;;;5077378;28;20525;-66
2022/05/01 11:01:57;;;;;;;14.15;9.70;;;16.80;96.40;;;;;;5077487;28;20028;-67
2022/05/01 11:04:23;;;;;;;16.00;10.73;;;16.80;96.40;;;;;;5095717;28;20164;-67
2022/05/01 11:07:03;;;;;;;13.00;10.75;;;16.70;97.40;;;;;;5095606;28;20122;-67
2022/05/01 11:09:34;;;;;;;16.48;10.88;;;16.60;97.40;;;;;;5095781;28;20020;-67
2022/05/01 11:12:00;;;;;;;13.95;11.55;;;16.40;97.90;;;;;;5095534;28;20031;-67
2022/05/01 11:14:49;;;;;;;14.30;11.10;;;16.30;97.90;;;;;;5076884;28;20024;-67
2022/05/01 11:17:26;;;;;;;12.10;9.90;;;16.10;98.20;;;;;;5095411;28;20012;-64
2022/05/01 11:19:52;;;;;;;18.80;11.75;;;16.10;98.70;;;;;;5095695;28;20024;-62
2022/05/01 11:22:27;;;;;;;13.95;10.25;;;16.00;97.80;;;;;;5095366;28;20016;-64
2022/05/01 11:24:53;;;;;;;14.93;10.07;;;15.90;98.70;;;;;;5095143;28;20028;-64
2022/05/01 11:27:21;;;;;;;14.20;10.13;;;15.80;99.20;;;;;;5095307;28;20034;-63
2022/05/01 11:30:13;;;;;;;16.35;9.98;;;15.80;99.30;;;;;;5095436;28;20027;-64
2022/05/01 11:32:59;;;;;;;13.85;10.27;;;16.00;99.60;;;;;;5095360;28;20016;-64
2022/05/01 11:36:00;;;;;;;12.75;10.25;;;16.00;99.30;;;;;;5096231;28;20032;-65
2022/05/01 11:38:38;;;;;;;12.05;10.70;;;16.20;99.50;;;;;;5097315;28;20107;-63
2022/05/01 11:41:05;;;;;;;13.40;9.82;;;16.30;99.80;;;;;;5098456;28;20053;-66
2022/05/01 11:43:31;;;;;;;14.85;10.13;;;16.50;99.70;;;;;;5079261;28;20115;-62
2022/05/01 11:45:58;;;;;;;15.68;10.90;;;16.40;99.70;;;;;;5097210;28;20028;-64
2022/05/01 11:48:25;;;;;;;13.23;9.50;;;16.40;99.30;;;;;;5096652;28;20095;-64
2022/05/01 11:50:52;;;;;;;16.15;11.50;;;16.30;99.70;;;;;;5095956;28;20539;-65
2022/05/01 11:53:20;;;;;;;15.10;10.77;;;16.40;99.50;;;;;;5096197;28;20032;-66
2022/05/01 12:04:28;;;;;;;14.63;10.27;;;16.70;98.90;;;;;;5094090;28;20031;-64
2022/05/01 12:07:07;;;;;;;21.02;10.07;;;16.60;99.00;;;;;;5095493;28;20142;-64
2022/05/01 12:09:35;;;;;;;12.30;9.75;;;16.40;98.90;;;;;;5094984;28;20028;-66
2022/05/01 12:12:01;;;;;;;12.32;9.98;;;16.20;99.50;;;;;;5094509;28;20034;-65
2022/05/01 12:14:28;;;;;;;14.35;10.15;;;16.20;99.80;;;;;;5094871;28;20514;-65
2022/05/01 12:16:54;;;;;;;15.50;13.07;;;16.10;99.90;;;;;;5094268;28;20537;-66
2022/05/01 12:19:20;;;;;;;13.18;10.80;;;16.10;99.90;;;;;;5094658;28;20032;-65
2022/05/01 12:21:46;;;;;;;18.05;10.25;;;16.10;99.90;;;;;;5076486;28;20032;-65
2022/05/01 12:24:12;;;;;;;13.70;9.50;;;16.10;99.90;;;;;;5094196;28;20024;-66
2022/05/01 12:26:39;;;;;;;;;;;16.10;99.90;;;;;;5076273;28;20443;-66
2022/05/01 12:29:09;;;;;;;13.55;8.77;;;16.00;99.80;;;;;;5095148;28;19904;-65
2022/05/01 12:32:17;;;;;;;11.13;8.32;;;15.90;99.90;;;;;;5095004;28;20437;-65
2022/05/01 12:34:52;;;;;;;11.07;8.07;;;15.90;99.90;;;;;;5012076;28;20050;-64
2022/05/01 12:37:19;;;;;;;10.65;8.45;;;16.00;99.90;;;;;;5012526;28;20156;-65
2022/05/01 12:40:12;;;;;;;13.13;8.95;;;15.90;99.90;;;;;;5012171;28;20042;-65
2022/05/01 12:45:45;;;;;;;11.77;7.82;;;16.10;99.90;;;;;;5012298;28;20033;-63
2022/05/01 12:48:13;;;;;;;13.45;8.18;;;16.20;99.90;;;;;;5012716;28;20037;-67
2022/05/01 12:50:40;;;;;;;12.43;8.73;;;16.30;99.90;;;;;;5012543;28;20049;-66
2022/05/01 12:53:29;;;;;;;12.50;8.95;;;16.30;99.90;;;;;;5012538;28;20554;-65
2022/05/01 12:55:59;;;;;;;11.88;9.15;;;16.40;99.90;;;;;;5011986;28;20041;-66
2022/05/01 12:58:29;;;;;;;13.52;9.88;;;16.40;99.90;;;;;;5011995;28;20033;-66
2022/05/01 13:00:55;;;;;;;14.32;9.15;;;16.60;99.80;;;;;;5011688;28;20030;-65
2022/05/01 13:03:40;;;;;;;16.45;11.07;;;16.80;99.50;;;;;;5011995;28;20064;-66
2022/05/01 13:06:13;;;;;;;11.60;9.95;;;16.90;99.10;;;;;;5076578;28;20035;-65
2022/05/01 13:09:04;;;;;;;11.77;9.25;;;17.00;98.30;;;;;;5094087;28;20035;-65
2022/05/01 13:11:33;;;;;;;12.00;8.98;;;17.10;98.00;;;;;;5093659;28;20031;-65
2022/05/01 13:14:05;;;;;;;12.98;9.52;;;17.10;98.70;;;;;;5075046;28;20039;-66
2022/05/01 13:16:31;;;;;;;13.60;9.68;;;17.20;98.80;;;;;;5093840;28;20032;-66